Fuji Maru — JD2030 — position and weather

sailwx.info

Track history (hours):
 
Tides and Currents Weather Stations Pressure Air Temp Water Temp Dewpoint Dewpoint Depression Visibility Wind Speed Wind Dir Waves Ship Positions

Fuji Maru

Last reported at 2015-Aug-30 00:33 UTC. Time now 2015-Aug-30 01:35 UTC.
Position N 35°39' E 139°46'.

Length 38 m; draft 4.4 m.

Type: Tug. MMSI: 431001102.

Date/timePositionNaut miles runAvg speedWind from/ knotsBaromVisibWave heightAir tempDewpointWater temp
2015-Aug-30 00:33N 35°39' E 139°46'0 0.0
2015-Aug-29 23:33N 35°39' E 139°46'0 0.0
2015-Aug-29 22:33N 35°39' E 139°46'0 0.0
2015-Aug-29 21:33N 35°39' E 139°46'0 0.0
2015-Aug-29 20:33N 35°39' E 139°46'0 0.0
2015-Aug-29 19:33N 35°39' E 139°46'0 0.0
2015-Aug-29 18:33N 35°39' E 139°46'0 0.0
2015-Aug-29 17:30N 35°39' E 139°46'0 0.0
2015-Aug-29 16:33N 35°39' E 139°46'0 0.0
2015-Aug-29 15:30N 35°39' E 139°46'0 0.0
2015-Aug-29 14:30N 35°39' E 139°46'0 0.0
2015-Aug-29 13:21N 35°39' E 139°46'0 0.0
2015-Aug-29 12:33N 35°39' E 139°46'0 0.0
2015-Aug-29 11:27N 35°39' E 139°46'0 0.0
2015-Aug-29 10:33N 35°39' E 139°46'0 0.0
2015-Aug-29 09:30N 35°39' E 139°46'0 0.0
2015-Aug-29 08:33N 35°39' E 139°46'0 0.0
2015-Aug-29 07:33N 35°39' E 139°46'0 0.0
2015-Aug-29 06:33N 35°39' E 139°46'3 3.2
2015-Aug-29 05:32N 35°36' E 139°46'0 0.0
2015-Aug-29 04:32N 35°36' E 139°46'1 1.1
2015-Aug-29 03:33N 35°37' E 139°46'2 2.0
2015-Aug-29 02:31N 35°39' E 139°46'0 0.0
2015-Aug-29 01:31N 35°39' E 139°46'0 0.0
2015-Aug-29 00:31N 35°39' E 139°46'0 0.0
2015-Aug-28 23:31N 35°39' E 139°46'0 0.0
2015-Aug-28 22:31N 35°39' E 139°46'0 0.0
2015-Aug-28 21:31N 35°39' E 139°46'0 0.0
2015-Aug-28 20:31N 35°39' E 139°46'0 0.0
2015-Aug-28 19:31N 35°39' E 139°46'0 0.0
2015-Aug-28 18:31N 35°39' E 139°46'0 0.0
2015-Aug-28 17:28N 35°39' E 139°46'0 0.0
2015-Aug-28 16:25N 35°39' E 139°46'0 0.0
2015-Aug-28 15:28N 35°39' E 139°46'0 0.0
2015-Aug-28 14:28N 35°39' E 139°46'2 2.1
2015-Aug-28 13:22N 35°37' E 139°47'2 2.0
2015-Aug-28 12:29N 35°38' E 139°45'3 3.2
2015-Aug-28 11:34N 35°36' E 139°47'1 0.5
2015-Aug-28 10:33N 35°36' E 139°48'0 0.0
2015-Aug-28 09:33N 35°36' E 139°48'0 0.0
2015-Aug-28 08:33N 35°36' E 139°48'1 1.2
2015-Aug-28 07:33N 35°37' E 139°47'1 0.9
2015-Aug-28 06:33N 35°36' E 139°48'3 2.8
2015-Aug-28 05:29N 35°39' E 139°46'0 0.0
2015-Aug-28 04:29N 35°39' E 139°46'0 0.0
2015-Aug-28 03:32N 35°39' E 139°46'0 0.0
2015-Aug-28 02:32N 35°39' E 139°46'0 0.0
2015-Aug-28 01:32N 35°39' E 139°46'0 0.0
2015-Aug-28 00:32N 35°39' E 139°46'0 0.0
2015-Aug-27 23:32N 35°39' E 139°46'4 3.7
2015-Aug-27 22:34N 35°35' E 139°47'2 2.2
2015-Aug-27 21:33N 35°37' E 139°46'2 1.4
2015-Aug-27 20:28N 35°39' E 139°46'0 0.0
2015-Aug-27 19:28N 35°39' E 139°46'0 0.0
2015-Aug-27 18:28N 35°39' E 139°46'0 0.0
2015-Aug-27 17:31N 35°39' E 139°46'0 0.0
2015-Aug-27 16:31N 35°39' E 139°46'0 0.0
2015-Aug-27 15:31N 35°39' E 139°46'0 0.0
2015-Aug-27 14:31N 35°39' E 139°46'0 0.0
2015-Aug-27 13:31N 35°39' E 139°46'0 0.0
2015-Aug-27 12:25N 35°39' E 139°46'0 0.0
2015-Aug-27 11:31N 35°39' E 139°46'2 2.4
2015-Aug-27 10:33N 35°37' E 139°46'1 1.1
2015-Aug-27 09:33N 35°38' E 139°46'1 1.2
2015-Aug-27 08:32N 35°39' E 139°46'0 0.0
2015-Aug-27 07:29N 35°39' E 139°46'0 0.0
2015-Aug-27 06:32N 35°39' E 139°46'0 0.0
2015-Aug-27 05:32N 35°39' E 139°46'0 0.0
2015-Aug-27 04:32N 35°39' E 139°46'0 0.0
2015-Aug-27 03:32N 35°39' E 139°46'0 0.0
2015-Aug-27 02:32N 35°39' E 139°46'0 0.0
2015-Aug-27 01:26N 35°39' E 139°46'0 0.0
2015-Aug-27 00:32N 35°39' E 139°46'0 0.0
2015-Aug-26 23:32N 35°39' E 139°46'0 0.0
2015-Aug-26 22:20N 35°39' E 139°46'0 0.0
2015-Aug-26 21:32N 35°39' E 139°46'0 0.0
2015-Aug-26 20:32N 35°39' E 139°46'0 0.0
2015-Aug-26 19:32N 35°39' E 139°46'0 0.0
2015-Aug-26 18:29N 35°39' E 139°46'0 0.0
2015-Aug-26 17:26N 35°39' E 139°46'0 0.0
2015-Aug-26 16:32N 35°39' E 139°46'0 0.0
2015-Aug-26 15:32N 35°39' E 139°46'0 0.0
2015-Aug-26 14:32N 35°39' E 139°46'0 0.0
2015-Aug-26 13:29N 35°39' E 139°46'0 0.0
2015-Aug-26 12:32N 35°39' E 139°46'0 0.0
2015-Aug-26 11:32N 35°39' E 139°46'0 0.0
2015-Aug-26 10:32N 35°39' E 139°46'2 2.0
2015-Aug-26 09:22N 35°36' E 139°46'4 4.2
2015-Aug-26 08:29N 35°34' E 139°49'6 5.8
2015-Aug-26 07:32N 35°39' E 139°46'0 0.0
2015-Aug-26 06:29N 35°39' E 139°46'0 0.0
2015-Aug-26 05:29N 35°39' E 139°46'0 0.0
2015-Aug-26 04:29N 35°39' E 139°46'0 0.0
2015-Aug-26 03:32N 35°39' E 139°46'0 0.0
2015-Aug-26 02:26N 35°39' E 139°46'0 0.0
2015-Aug-26 01:32N 35°39' E 139°46'0 0.0
2015-Aug-26 00:32N 35°39' E 139°46'0 0.0
2015-Aug-25 23:32N 35°39' E 139°46'4 3.6
2015-Aug-25 22:33N 35°35' E 139°47'2 2.0
2015-Aug-25 21:33N 35°35' E 139°49'2 1.9
2015-Aug-25 20:31N 35°35' E 139°47'2 2.2
2015-Aug-25 19:33N 35°37' E 139°46'1 1.4
2015-Aug-25 18:33N 35°39' E 139°46'0 0.0
2015-Aug-25 17:27N 35°39' E 139°46'0 0.0
2015-Aug-25 16:33N 35°39' E 139°46'0 0.0
2015-Aug-25 15:21N 35°39' E 139°46'0 0.0
2015-Aug-25 14:21N 35°39' E 139°46'0 0.0
2015-Aug-25 13:33N 35°39' E 139°46'0 0.0
2015-Aug-25 12:33N 35°39' E 139°46'0 0.0
2015-Aug-25 11:33N 35°39' E 139°46'0 0.0
2015-Aug-25 10:30N 35°39' E 139°46'0 0.0
2015-Aug-25 09:33N 35°39' E 139°46'0 0.0
2015-Aug-25 08:33N 35°39' E 139°46'0 0.0
2015-Aug-25 07:21N 35°39' E 139°46'0 0.0
2015-Aug-25 06:33N 35°39' E 139°46'0 0.0
2015-Aug-25 05:33N 35°39' E 139°46'0 0.0
2015-Aug-25 04:27N 35°39' E 139°46'0 0.0
2015-Aug-25 03:30N 35°39' E 139°46'0 0.0
2015-Aug-25 02:33N 35°39' E 139°46'0 0.0
2015-Aug-25 01:33N 35°39' E 139°46'0 0.0
2015-Aug-25 00:33N 35°39' E 139°46'0 0.0
2015-Aug-24 23:33N 35°39' E 139°46'0 0.0
2015-Aug-24 22:33N 35°39' E 139°46'0 0.0
2015-Aug-24 21:33N 35°39' E 139°46'0 0.0
2015-Aug-24 20:24N 35°39' E 139°46'0 0.0
2015-Aug-24 19:30N 35°39' E 139°46'0 0.0
2015-Aug-24 18:27N 35°39' E 139°46'0 0.0
2015-Aug-24 17:33N 35°39' E 139°46'0 0.0
2015-Aug-24 16:33N 35°39' E 139°46'0 0.0
2015-Aug-24 15:33N 35°39' E 139°46'2 1.6
2015-Aug-24 14:33N 35°37' E 139°46'0 0.2
2015-Aug-24 13:34N 35°37' E 139°46'1 1.0
2015-Aug-24 12:33N 35°38' E 139°46'2 1.7
2015-Aug-24 11:30N 35°37' E 139°47'3 3.5
2015-Aug-24 10:33N 35°34' E 139°49'3 3.1
2015-Aug-24 09:32N 35°36' E 139°46'1 0.7
2015-Aug-24 08:32N 35°35' E 139°47'0 0.0
2015-Aug-24 07:32N 35°35' E 139°47'2 1.9
2015-Aug-24 06:34N 35°37' E 139°46'2 1.7
2015-Aug-24 05:33N 35°39' E 139°46'0 0.0
2015-Aug-24 04:27N 35°39' E 139°46'0 0.0
2015-Aug-24 03:30N 35°39' E 139°46'0 0.0
2015-Aug-24 02:33N 35°39' E 139°46'0 0.0
2015-Aug-24 01:30N 35°39' E 139°46'0 0.0
2015-Aug-24 00:33N 35°39' E 139°46'0 0.0
2015-Aug-23 23:33N 35°39' E 139°46'3 3.2
2015-Aug-23 22:33N 35°36' E 139°47'1 1.1
2015-Aug-23 21:33N 35°35' E 139°48'4 4.1
2015-Aug-23 20:33N 35°39' E 139°46'0 0.0
2015-Aug-23 19:33N 35°39' E 139°46'0 0.0
2015-Aug-23 18:27N 35°39' E 139°46'0 0.1
2015-Aug-23 17:33N 35°39' E 139°46'0 0.0
2015-Aug-23 16:30N 35°39' E 139°46'0 0.0
2015-Aug-23 15:33N 35°39' E 139°46'0 0.0
2015-Aug-23 14:33N 35°39' E 139°46'0 0.0
2015-Aug-23 13:33N 35°39' E 139°46'0 0.0
2015-Aug-23 12:30N 35°39' E 139°46'0 0.0
2015-Aug-23 11:30N 35°39' E 139°46'0 0.1
2015-Aug-23 10:33N 35°39' E 139°46'0 0.0
2015-Aug-23 09:30N 35°39' E 139°46'0 0.0
2015-Aug-23 08:33N 35°39' E 139°46'0 0.0
2015-Aug-23 07:33N 35°39' E 139°46'0 0.0
2015-Aug-23 06:27N 35°39' E 139°46'0 0.0
2015-Aug-23 05:24N 35°39' E 139°46'0 0.0
2015-Aug-23 04:30N 35°39' E 139°46'0 0.0
2015-Aug-23 03:33N 35°39' E 139°46'0 0.0
2015-Aug-23 02:30N 35°39' E 139°46'0 0.0
2015-Aug-23 01:33N 35°39' E 139°46'0 0.0
2015-Aug-23 00:33N 35°39' E 139°46'0 0.0
2015-Aug-22 23:27N 35°39' E 139°46'0 0.0
2015-Aug-22 22:33N 35°39' E 139°46'0 0.0
2015-Aug-22 21:33N 35°39' E 139°46'0 0.0
2015-Aug-22 20:33N 35°39' E 139°46'0 0.0
2015-Aug-22 19:33N 35°39' E 139°46'0 0.0
2015-Aug-22 18:30N 35°39' E 139°46'0 0.0
2015-Aug-22 17:30N 35°39' E 139°46'0 0.0
2015-Aug-22 16:33N 35°39' E 139°46'0 0.0
2015-Aug-22 15:30N 35°39' E 139°46'2 2.5
2015-Aug-22 14:33N 35°37' E 139°47'1 1.2
2015-Aug-22 13:34N 35°37' E 139°46'1 0.9
2015-Aug-22 12:33N 35°37' E 139°46'2 1.7
2015-Aug-22 11:32N 35°38' E 139°46'2 2.3
2015-Aug-22 10:32N 35°36' E 139°47'3 3.0
2015-Aug-22 09:32N 35°34' E 139°50'4 3.9
2015-Aug-22 08:31N 35°37' E 139°46'2 2.2
2015-Aug-22 07:32N 35°39' E 139°46'0 0.0
2015-Aug-22 06:32N 35°39' E 139°46'0 0.0
2015-Aug-22 05:23N 35°39' E 139°46'0 0.0
2015-Aug-22 04:29N 35°39' E 139°46'0 0.0
2015-Aug-22 03:32N 35°39' E 139°46'0 0.0
2015-Aug-22 02:26N 35°39' E 139°46'0 0.0
2015-Aug-22 01:32N 35°39' E 139°46'0 0.0
2015-Aug-22 00:32N 35°39' E 139°46'0 0.0
2015-Aug-21 23:32N 35°39' E 139°46'0 0.0
2015-Aug-21 22:32N 35°39' E 139°46'0 0.0
2015-Aug-21 21:32N 35°39' E 139°46'0 0.0
2015-Aug-21 20:32N 35°39' E 139°46'0 0.0
2015-Aug-21 19:32N 35°39' E 139°46'0 0.0
2015-Aug-21 18:32N 35°39' E 139°46'0 0.0
2015-Aug-21 17:32N 35°39' E 139°46'0 0.0
2015-Aug-21 16:32N 35°39' E 139°46'0 0.0
2015-Aug-21 15:32N 35°39' E 139°46'0 0.0
2015-Aug-21 14:26N 35°39' E 139°46'0 0.0
2015-Aug-21 13:14N 35°39' E 139°46'0 0.0
2015-Aug-21 12:29N 35°39' E 139°46'0 0.0
2015-Aug-21 11:29N 35°39' E 139°46'0 0.0
2015-Aug-21 10:29N 35°39' E 139°46'0 0.0
2015-Aug-21 09:32N 35°39' E 139°46'3 3.0
2015-Aug-21 08:33N 35°36' E 139°47'2 2.3
2015-Aug-21 07:33N 35°38' E 139°45'1 0.7
2015-Aug-21 06:31N 35°39' E 139°46'0 0.0
2015-Aug-21 05:31N 35°39' E 139°46'0 0.0
2015-Aug-21 04:31N 35°39' E 139°46'0 0.0
2015-Aug-21 03:31N 35°39' E 139°46'0 0.0
2015-Aug-21 02:31N 35°39' E 139°46'0 0.0
2015-Aug-21 01:31N 35°39' E 139°46'0 0.0
2015-Aug-21 00:31N 35°39' E 139°46'3 3.2
2015-Aug-20 23:33N 35°36' E 139°47'2 2.3
2015-Aug-20 22:32N 35°38' E 139°46'0 0.0
2015-Aug-20 21:29N 35°38' E 139°46'2 1.9
2015-Aug-20 20:34N 35°36' E 139°47'2 2.4
2015-Aug-20 19:32N 35°39' E 139°46'0 0.0
2015-Aug-20 18:32N 35°39' E 139°46'0 0.0
2015-Aug-20 17:32N 35°39' E 139°46'0 0.0
2015-Aug-20 16:32N 35°39' E 139°46'0 0.0
2015-Aug-20 15:32N 35°39' E 139°46'0 0.0
2015-Aug-20 14:29N 35°39' E 139°46'0 0.0
2015-Aug-20 13:29N 35°39' E 139°46'0 0.0
2015-Aug-20 12:29N 35°39' E 139°46'0 0.0
2015-Aug-20 11:32N 35°39' E 139°46'0 0.0
2015-Aug-20 10:29N 35°39' E 139°46'0 0.0
2015-Aug-20 09:29N 35°39' E 139°46'0 0.0
2015-Aug-20 08:32N 35°39' E 139°46'0 0.0
2015-Aug-20 07:32N 35°39' E 139°46'0 0.0
2015-Aug-20 06:32N 35°39' E 139°46'0 0.0
2015-Aug-20 05:32N 35°39' E 139°46'0 0.0
2015-Aug-20 04:32N 35°39' E 139°46'1 0.9
2015-Aug-20 03:33N 35°38' E 139°46'4 4.4
2015-Aug-20 02:33N 35°34' E 139°49'2 2.4
2015-Aug-20 01:32N 35°36' E 139°46'  
Track history (hours):
 
Tides and Currents Weather Stations Pressure Air Temp Water Temp Dewpoint Dewpoint Depression Visibility Wind Speed Wind Dir Waves Ship Positions

Fuji Maru

Last reported at 2015-Aug-30 00:33 UTC. Time now 2015-Aug-30 01:35 UTC.
Position N 35°39' E 139°46'.

Length 38 m; draft 4.4 m.

Type: Tug. MMSI: 431001102.

Date/timePositionNaut miles runAvg speedWind from/ knotsBaromVisibWave heightAir tempDewpointWater temp
2015-Aug-30 00:33N 35°39' E 139°46'0 0.0
2015-Aug-29 23:33N 35°39' E 139°46'0 0.0
2015-Aug-29 22:33N 35°39' E 139°46'0 0.0
2015-Aug-29 21:33N 35°39' E 139°46'0 0.0
2015-Aug-29 20:33N 35°39' E 139°46'0 0.0
2015-Aug-29 19:33N 35°39' E 139°46'0 0.0
2015-Aug-29 18:33N 35°39' E 139°46'0 0.0
2015-Aug-29 17:30N 35°39' E 139°46'0 0.0
2015-Aug-29 16:33N 35°39' E 139°46'0 0.0
2015-Aug-29 15:30N 35°39' E 139°46'0 0.0
2015-Aug-29 14:30N 35°39' E 139°46'0 0.0
2015-Aug-29 13:21N 35°39' E 139°46'0 0.0
2015-Aug-29 12:33N 35°39' E 139°46'0 0.0
2015-Aug-29 11:27N 35°39' E 139°46'0 0.0
2015-Aug-29 10:33N 35°39' E 139°46'0 0.0
2015-Aug-29 09:30N 35°39' E 139°46'0 0.0
2015-Aug-29 08:33N 35°39' E 139°46'0 0.0
2015-Aug-29 07:33N 35°39' E 139°46'0 0.0
2015-Aug-29 06:33N 35°39' E 139°46'3 3.2
2015-Aug-29 05:32N 35°36' E 139°46'0 0.0
2015-Aug-29 04:32N 35°36' E 139°46'1 1.1
2015-Aug-29 03:33N 35°37' E 139°46'2 2.0
2015-Aug-29 02:31N 35°39' E 139°46'0 0.0
2015-Aug-29 01:31N 35°39' E 139°46'0 0.0
2015-Aug-29 00:31N 35°39' E 139°46'0 0.0
2015-Aug-28 23:31N 35°39' E 139°46'0 0.0
2015-Aug-28 22:31N 35°39' E 139°46'0 0.0
2015-Aug-28 21:31N 35°39' E 139°46'0 0.0
2015-Aug-28 20:31N 35°39' E 139°46'0 0.0
2015-Aug-28 19:31N 35°39' E 139°46'0 0.0
2015-Aug-28 18:31N 35°39' E 139°46'0 0.0
2015-Aug-28 17:28N 35°39' E 139°46'0 0.0
2015-Aug-28 16:25N 35°39' E 139°46'0 0.0
2015-Aug-28 15:28N 35°39' E 139°46'0 0.0
2015-Aug-28 14:28N 35°39' E 139°46'2 2.1
2015-Aug-28 13:22N 35°37' E 139°47'2 2.0
2015-Aug-28 12:29N 35°38' E 139°45'3 3.2
2015-Aug-28 11:34N 35°36' E 139°47'1 0.5
2015-Aug-28 10:33N 35°36' E 139°48'0 0.0
2015-Aug-28 09:33N 35°36' E 139°48'0 0.0
2015-Aug-28 08:33N 35°36' E 139°48'1 1.2
2015-Aug-28 07:33N 35°37' E 139°47'1 0.9
2015-Aug-28 06:33N 35°36' E 139°48'3 2.8
2015-Aug-28 05:29N 35°39' E 139°46'0 0.0
2015-Aug-28 04:29N 35°39' E 139°46'0 0.0
2015-Aug-28 03:32N 35°39' E 139°46'0 0.0
2015-Aug-28 02:32N 35°39' E 139°46'0 0.0
2015-Aug-28 01:32N 35°39' E 139°46'0 0.0
2015-Aug-28 00:32N 35°39' E 139°46'0 0.0
2015-Aug-27 23:32N 35°39' E 139°46'4 3.7
2015-Aug-27 22:34N 35°35' E 139°47'2 2.2
2015-Aug-27 21:33N 35°37' E 139°46'2 1.4
2015-Aug-27 20:28N 35°39' E 139°46'0 0.0
2015-Aug-27 19:28N 35°39' E 139°46'0 0.0
2015-Aug-27 18:28N 35°39' E 139°46'0 0.0
2015-Aug-27 17:31N 35°39' E 139°46'0 0.0
2015-Aug-27 16:31N 35°39' E 139°46'0 0.0
2015-Aug-27 15:31N 35°39' E 139°46'0 0.0
2015-Aug-27 14:31N 35°39' E 139°46'0 0.0
2015-Aug-27 13:31N 35°39' E 139°46'0 0.0
2015-Aug-27 12:25N 35°39' E 139°46'0 0.0
2015-Aug-27 11:31N 35°39' E 139°46'2 2.4
2015-Aug-27 10:33N 35°37' E 139°46'1 1.1
2015-Aug-27 09:33N 35°38' E 139°46'1 1.2
2015-Aug-27 08:32N 35°39' E 139°46'0 0.0
2015-Aug-27 07:29N 35°39' E 139°46'0 0.0
2015-Aug-27 06:32N 35°39' E 139°46'0 0.0
2015-Aug-27 05:32N 35°39' E 139°46'0 0.0
2015-Aug-27 04:32N 35°39' E 139°46'0 0.0
2015-Aug-27 03:32N 35°39' E 139°46'0 0.0
2015-Aug-27 02:32N 35°39' E 139°46'0 0.0
2015-Aug-27 01:26N 35°39' E 139°46'0 0.0
2015-Aug-27 00:32N 35°39' E 139°46'0 0.0
2015-Aug-26 23:32N 35°39' E 139°46'0 0.0
2015-Aug-26 22:20N 35°39' E 139°46'0 0.0
2015-Aug-26 21:32N 35°39' E 139°46'0 0.0
2015-Aug-26 20:32N 35°39' E 139°46'0 0.0
2015-Aug-26 19:32N 35°39' E 139°46'0 0.0
2015-Aug-26 18:29N 35°39' E 139°46'0 0.0
2015-Aug-26 17:26N 35°39' E 139°46'0 0.0
2015-Aug-26 16:32N 35°39' E 139°46'0 0.0
2015-Aug-26 15:32N 35°39' E 139°46'0 0.0
2015-Aug-26 14:32N 35°39' E 139°46'0 0.0
2015-Aug-26 13:29N 35°39' E 139°46'0 0.0
2015-Aug-26 12:32N 35°39' E 139°46'0 0.0
2015-Aug-26 11:32N 35°39' E 139°46'0 0.0
2015-Aug-26 10:32N 35°39' E 139°46'2 2.0
2015-Aug-26 09:22N 35°36' E 139°46'4 4.2
2015-Aug-26 08:29N 35°34' E 139°49'6 5.8
2015-Aug-26 07:32N 35°39' E 139°46'0 0.0
2015-Aug-26 06:29N 35°39' E 139°46'0 0.0
2015-Aug-26 05:29N 35°39' E 139°46'0 0.0
2015-Aug-26 04:29N 35°39' E 139°46'0 0.0
2015-Aug-26 03:32N 35°39' E 139°46'0 0.0
2015-Aug-26 02:26N 35°39' E 139°46'0 0.0
2015-Aug-26 01:32N 35°39' E 139°46'0 0.0
2015-Aug-26 00:32N 35°39' E 139°46'0 0.0
2015-Aug-25 23:32N 35°39' E 139°46'4 3.6
2015-Aug-25 22:33N 35°35' E 139°47'2 2.0
2015-Aug-25 21:33N 35°35' E 139°49'2 1.9
2015-Aug-25 20:31N 35°35' E 139°47'2 2.2
2015-Aug-25 19:33N 35°37' E 139°46'1 1.4
2015-Aug-25 18:33N 35°39' E 139°46'0 0.0
2015-Aug-25 17:27N 35°39' E 139°46'0 0.0
2015-Aug-25 16:33N 35°39' E 139°46'0 0.0
2015-Aug-25 15:21N 35°39' E 139°46'0 0.0
2015-Aug-25 14:21N 35°39' E 139°46'0 0.0
2015-Aug-25 13:33N 35°39' E 139°46'0 0.0
2015-Aug-25 12:33N 35°39' E 139°46'0 0.0
2015-Aug-25 11:33N 35°39' E 139°46'0 0.0
2015-Aug-25 10:30N 35°39' E 139°46'0 0.0
2015-Aug-25 09:33N 35°39' E 139°46'0 0.0
2015-Aug-25 08:33N 35°39' E 139°46'0 0.0
2015-Aug-25 07:21N 35°39' E 139°46'0 0.0
2015-Aug-25 06:33N 35°39' E 139°46'0 0.0
2015-Aug-25 05:33N 35°39' E 139°46'0 0.0
2015-Aug-25 04:27N 35°39' E 139°46'0 0.0
2015-Aug-25 03:30N 35°39' E 139°46'0 0.0
2015-Aug-25 02:33N 35°39' E 139°46'0 0.0
2015-Aug-25 01:33N 35°39' E 139°46'0 0.0
2015-Aug-25 00:33N 35°39' E 139°46'0 0.0
2015-Aug-24 23:33N 35°39' E 139°46'0 0.0
2015-Aug-24 22:33N 35°39' E 139°46'0 0.0
2015-Aug-24 21:33N 35°39' E 139°46'0 0.0
2015-Aug-24 20:24N 35°39' E 139°46'0 0.0
2015-Aug-24 19:30N 35°39' E 139°46'0 0.0
2015-Aug-24 18:27N 35°39' E 139°46'0 0.0
2015-Aug-24 17:33N 35°39' E 139°46'0 0.0
2015-Aug-24 16:33N 35°39' E 139°46'0 0.0
2015-Aug-24 15:33N 35°39' E 139°46'2 1.6
2015-Aug-24 14:33N 35°37' E 139°46'0 0.2
2015-Aug-24 13:34N 35°37' E 139°46'1 1.0
2015-Aug-24 12:33N 35°38' E 139°46'2 1.7
2015-Aug-24 11:30N 35°37' E 139°47'3 3.5
2015-Aug-24 10:33N 35°34' E 139°49'3 3.1
2015-Aug-24 09:32N 35°36' E 139°46'1 0.7
2015-Aug-24 08:32N 35°35' E 139°47'0 0.0
2015-Aug-24 07:32N 35°35' E 139°47'2 1.9
2015-Aug-24 06:34N 35°37' E 139°46'2 1.7
2015-Aug-24 05:33N 35°39' E 139°46'0 0.0
2015-Aug-24 04:27N 35°39' E 139°46'0 0.0
2015-Aug-24 03:30N 35°39' E 139°46'0 0.0
2015-Aug-24 02:33N 35°39' E 139°46'0 0.0
2015-Aug-24 01:30N 35°39' E 139°46'0 0.0
2015-Aug-24 00:33N 35°39' E 139°46'0 0.0
2015-Aug-23 23:33N 35°39' E 139°46'3 3.2
2015-Aug-23 22:33N 35°36' E 139°47'1 1.1
2015-Aug-23 21:33N 35°35' E 139°48'4 4.1
2015-Aug-23 20:33N 35°39' E 139°46'0 0.0
2015-Aug-23 19:33N 35°39' E 139°46'0 0.0
2015-Aug-23 18:27N 35°39' E 139°46'0 0.1
2015-Aug-23 17:33N 35°39' E 139°46'0 0.0
2015-Aug-23 16:30N 35°39' E 139°46'0 0.0
2015-Aug-23 15:33N 35°39' E 139°46'0 0.0
2015-Aug-23 14:33N 35°39' E 139°46'0 0.0
2015-Aug-23 13:33N 35°39' E 139°46'0 0.0
2015-Aug-23 12:30N 35°39' E 139°46'0 0.0
2015-Aug-23 11:30N 35°39' E 139°46'0 0.1
2015-Aug-23 10:33N 35°39' E 139°46'0 0.0
2015-Aug-23 09:30N 35°39' E 139°46'0 0.0
2015-Aug-23 08:33N 35°39' E 139°46'0 0.0
2015-Aug-23 07:33N 35°39' E 139°46'0 0.0
2015-Aug-23 06:27N 35°39' E 139°46'0 0.0
2015-Aug-23 05:24N 35°39' E 139°46'0 0.0
2015-Aug-23 04:30N 35°39' E 139°46'0 0.0
2015-Aug-23 03:33N 35°39' E 139°46'0 0.0
2015-Aug-23 02:30N 35°39' E 139°46'0 0.0
2015-Aug-23 01:33N 35°39' E 139°46'0 0.0
2015-Aug-23 00:33N 35°39' E 139°46'0 0.0
2015-Aug-22 23:27N 35°39' E 139°46'0 0.0
2015-Aug-22 22:33N 35°39' E 139°46'0 0.0
2015-Aug-22 21:33N 35°39' E 139°46'0 0.0
2015-Aug-22 20:33N 35°39' E 139°46'0 0.0
2015-Aug-22 19:33N 35°39' E 139°46'0 0.0
2015-Aug-22 18:30N 35°39' E 139°46'0 0.0
2015-Aug-22 17:30N 35°39' E 139°46'0 0.0
2015-Aug-22 16:33N 35°39' E 139°46'0 0.0
2015-Aug-22 15:30N 35°39' E 139°46'2 2.5
2015-Aug-22 14:33N 35°37' E 139°47'1 1.2
2015-Aug-22 13:34N 35°37' E 139°46'1 0.9
2015-Aug-22 12:33N 35°37' E 139°46'2 1.7
2015-Aug-22 11:32N 35°38' E 139°46'2 2.3
2015-Aug-22 10:32N 35°36' E 139°47'3 3.0
2015-Aug-22 09:32N 35°34' E 139°50'4 3.9
2015-Aug-22 08:31N 35°37' E 139°46'2 2.2
2015-Aug-22 07:32N 35°39' E 139°46'0 0.0
2015-Aug-22 06:32N 35°39' E 139°46'0 0.0
2015-Aug-22 05:23N 35°39' E 139°46'0 0.0
2015-Aug-22 04:29N 35°39' E 139°46'0 0.0
2015-Aug-22 03:32N 35°39' E 139°46'0 0.0
2015-Aug-22 02:26N 35°39' E 139°46'0 0.0
2015-Aug-22 01:32N 35°39' E 139°46'0 0.0
2015-Aug-22 00:32N 35°39' E 139°46'0 0.0
2015-Aug-21 23:32N 35°39' E 139°46'0 0.0
2015-Aug-21 22:32N 35°39' E 139°46'0 0.0
2015-Aug-21 21:32N 35°39' E 139°46'0 0.0
2015-Aug-21 20:32N 35°39' E 139°46'0 0.0
2015-Aug-21 19:32N 35°39' E 139°46'0 0.0
2015-Aug-21 18:32N 35°39' E 139°46'0 0.0
2015-Aug-21 17:32N 35°39' E 139°46'0 0.0
2015-Aug-21 16:32N 35°39' E 139°46'0 0.0
2015-Aug-21 15:32N 35°39' E 139°46'0 0.0
2015-Aug-21 14:26N 35°39' E 139°46'0 0.0
2015-Aug-21 13:14N 35°39' E 139°46'0 0.0
2015-Aug-21 12:29N 35°39' E 139°46'0 0.0
2015-Aug-21 11:29N 35°39' E 139°46'0 0.0
2015-Aug-21 10:29N 35°39' E 139°46'0 0.0
2015-Aug-21 09:32N 35°39' E 139°46'3 3.0
2015-Aug-21 08:33N 35°36' E 139°47'2 2.3
2015-Aug-21 07:33N 35°38' E 139°45'1 0.7
2015-Aug-21 06:31N 35°39' E 139°46'0 0.0
2015-Aug-21 05:31N 35°39' E 139°46'0 0.0
2015-Aug-21 04:31N 35°39' E 139°46'0 0.0
2015-Aug-21 03:31N 35°39' E 139°46'0 0.0
2015-Aug-21 02:31N 35°39' E 139°46'0 0.0
2015-Aug-21 01:31N 35°39' E 139°46'0 0.0
2015-Aug-21 00:31N 35°39' E 139°46'3 3.2
2015-Aug-20 23:33N 35°36' E 139°47'2 2.3
2015-Aug-20 22:32N 35°38' E 139°46'0 0.0
2015-Aug-20 21:29N 35°38' E 139°46'2 1.9
2015-Aug-20 20:34N 35°36' E 139°47'2 2.4
2015-Aug-20 19:32N 35°39' E 139°46'0 0.0
2015-Aug-20 18:32N 35°39' E 139°46'0 0.0
2015-Aug-20 17:32N 35°39' E 139°46'0 0.0
2015-Aug-20 16:32N 35°39' E 139°46'0 0.0
2015-Aug-20 15:32N 35°39' E 139°46'0 0.0
2015-Aug-20 14:29N 35°39' E 139°46'0 0.0
2015-Aug-20 13:29N 35°39' E 139°46'0 0.0
2015-Aug-20 12:29N 35°39' E 139°46'0 0.0
2015-Aug-20 11:32N 35°39' E 139°46'0 0.0
2015-Aug-20 10:29N 35°39' E 139°46'0 0.0
2015-Aug-20 09:29N 35°39' E 139°46'0 0.0
2015-Aug-20 08:32N 35°39' E 139°46'0 0.0
2015-Aug-20 07:32N 35°39' E 139°46'0 0.0
2015-Aug-20 06:32N 35°39' E 139°46'0 0.0
2015-Aug-20 05:32N 35°39' E 139°46'0 0.0
2015-Aug-20 04:32N 35°39' E 139°46'1 0.9
2015-Aug-20 03:33N 35°38' E 139°46'4 4.4
2015-Aug-20 02:33N 35°34' E 139°49'2 2.4
2015-Aug-20 01:32N 35°36' E 139°46'  

Dump ship's entire track history